Time;durP1;ratioP1;P1;durP2;ratioP2;P2;SDS_P1;SDS_P2;PMS_P1;PMS_P2;Temp;Humidity;BMP_temperature;BMP_pressure;BME280_temperature;BME280_humidity;BME280_pressure;Samples;Min_cycle;Max_cycle;Signal;HPM_P1;HPM_P2
2022/10/27 00:02:21;;;;;;;58.45;22.88;;;;;;;16.04;100.00;95408.47;5006249;28;20032;-87
2022/10/27 00:04:47;;;;;;;66.68;23.30;;;;;;;15.67;100.00;95405.25;5006311;28;20025;-88
2022/10/27 00:07:12;;;;;;;74.47;25.35;;;;;;;15.83;100.00;95399.88;5022920;28;20141;-88
2022/10/27 00:09:38;;;;;;;91.45;26.25;;;;;;;15.81;100.00;95404.66;5006376;28;20029;-87
2022/10/27 00:12:03;;;;;;;55.53;21.65;;;;;;;16.09;100.00;95403.13;5006410;28;20029;-87
2022/10/27 00:14:29;;;;;;;65.50;23.50;;;;;;;16.15;100.00;95406.53;5006007;28;20033;-88
2022/10/27 00:16:55;;;;;;;71.40;24.08;;;;;;;16.13;100.00;95408.66;5006299;28;20070;-88
2022/10/27 00:19:22;;;;;;;81.20;24.70;;;;;;;15.83;100.00;95402.50;5005829;28;20029;-87
2022/10/27 00:21:50;;;;;;;68.72;24.35;;;;;;;15.68;100.00;95400.75;5021950;28;20338;-88
2022/10/27 00:24:19;;;;;;;59.20;20.58;;;;;;;15.89;100.00;95408.56;5006153;28;20087;-87
2022/10/27 00:26:44;;;;;;;61.75;22.20;;;;;;;15.92;100.00;95408.84;5005935;28;20025;-87
2022/10/27 00:29:17;;;;;;;73.28;22.67;;;;;;;15.65;100.00;95403.94;5005937;28;20033;-88
2022/10/27 00:31:42;;;;;;;85.37;21.93;;;;;;;15.49;100.00;95401.41;5007065;28;20397;-88
2022/10/27 00:34:08;;;;;;;62.47;21.52;;;;;;;15.61;100.00;95401.06;5005449;28;20037;-88
2022/10/27 00:36:33;;;;;;;62.75;21.48;;;;;;;15.82;100.00;95403.59;5005998;28;20044;-87
2022/10/27 00:39:02;;;;;;;45.08;18.85;;;;;;;15.94;100.00;95408.53;5005714;28;20038;-87
2022/10/27 00:41:36;;;;;;;48.92;17.80;;;;;;;16.02;100.00;95412.44;5005502;28;20456;-87
2022/10/27 00:44:33;;;;;;;49.90;18.58;;;;;;;15.69;100.00;95408.41;5005611;28;20124;-88
2022/10/27 00:47:10;;;;;;;62.25;21.20;;;;;;;15.52;100.00;95410.63;5021207;28;20450;-88
2022/10/27 00:49:58;;;;;;;59.72;17.85;;;;;;;15.55;100.00;95410.84;5021880;28;20091;-88
2022/10/27 00:52:32;;;;;;;60.20;17.13;;;;;;;15.83;100.00;95413.84;5037928;28;20052;-88
2022/10/27 00:55:19;;;;;;;42.10;16.75;;;;;;;16.01;100.00;95416.97;5005779;28;20042;-88
2022/10/27 00:57:49;;;;;;;50.60;18.00;;;;;;;15.97;100.00;95413.28;5038402;28;20045;-87
2022/10/27 01:00:15;;;;;;;74.65;20.13;;;;;;;15.55;100.00;95405.56;5005399;28;20029;-87
2022/10/27 01:02:41;;;;;;;71.00;19.45;;;;;;;15.41;100.00;95413.31;5021351;28;20433;-87
2022/10/27 01:05:17;;;;;;;46.85;17.90;;;;;;;15.83;100.00;95411.22;5005460;28;20477;-87
2022/10/27 01:07:42;;;;;;;41.05;15.38;;;;;;;15.94;100.00;95414.63;5021233;28;20026;-88
2022/10/27 01:10:08;;;;;;;45.00;14.45;;;;;;;15.92;100.00;95411.47;5021253;28;20029;-88
2022/10/27 01:12:36;;;;;;;34.70;15.20;;;;;;;15.97;100.00;95415.91;5020974;28;20116;-88
2022/10/27 01:15:03;;;;;;;49.90;16.58;;;;;;;15.97;100.00;95422.00;5021597;28;20037;-89
2022/10/27 01:17:58;;;;;;;68.35;20.60;;;;;;;15.93;100.00;95412.25;5038605;28;20025;-88
2022/10/27 01:21:00;;;;;;;62.53;20.25;;;;;;;15.86;100.00;95409.13;5038324;28;20385;-88
2022/10/27 01:23:32;;;;;;;55.75;19.90;;;;;;;15.88;100.00;95406.97;5020944;28;20032;-87
2022/10/27 01:25:57;;;;;;;70.43;21.58;;;;;;;15.65;100.00;95403.94;5038403;28;20033;-88
2022/10/27 01:29:05;;;;;;;52.92;21.65;;;;;;;15.77;100.00;95404.41;5020934;28;20029;-88
2022/10/27 01:31:33;;;;;;;55.33;19.60;;;;;;;15.94;100.00;95400.59;4975265;28;20041;-88
2022/10/27 01:34:21;;;;;;;54.13;18.95;;;;;;;16.00;100.00;95401.38;5020757;28;20029;-88
2022/10/27 01:37:08;;;;;;;58.55;19.50;;;;;;;15.98;100.00;95401.63;5020793;28;20021;-88
2022/10/27 01:39:38;;;;;;;59.92;21.48;;;;;;;15.43;100.00;95402.50;5020791;28;20377;-88
2022/10/27 01:42:10;;;;;;;62.08;22.70;;;;;;;15.40;100.00;95398.53;5020275;28;20072;-87
2022/10/27 01:44:40;;;;;;;67.32;20.65;;;;;;;15.81;100.00;95400.13;5004292;28;20123;-88
2022/10/27 01:47:06;;;;;;;55.28;20.67;;;;;;;15.89;100.00;95400.63;5020505;28;20027;-88
2022/10/27 01:49:41;;;;;;;70.90;24.75;;;;;;;15.84;100.00;95394.28;5020492;28;20025;-88
2022/10/27 01:52:42;;;;;;;69.97;23.15;;;;;;;15.99;100.00;95387.34;5004083;28;20088;-87
2022/10/27 01:55:11;;;;;;;61.17;21.45;;;;;;;15.87;100.00;95392.97;5020358;28;20033;-87
2022/10/27 01:57:56;;;;;;;63.72;21.15;;;;;;;15.91;100.00;95393.25;5020047;28;20033;-88
2022/10/27 02:03:12;;;;;;;62.10;20.38;;;;;;;15.47;100.00;95387.69;4978022;28;20105;-94
2022/10/27 02:05:50;;;;;;;59.35;21.20;;;;;;;15.63;100.00;95382.31;4945749;28;20035;-95
2022/10/27 02:08:40;;;;;;;42.10;18.38;;;;;;;15.86;100.00;95380.81;4946570;28;20486;-94
2022/10/27 02:11:11;;;;;;;39.90;17.42;;;;;;;15.86;100.00;95385.34;4934744;28;20039;-94
2022/10/27 02:13:38;;;;;;;59.03;19.80;;;;;;;15.73;100.00;95389.38;4946412;28;20027;-94
2022/10/27 02:16:10;;;;;;;60.22;21.13;;;;;;;15.47;100.00;95384.22;4946067;28;20038;-94
2022/10/27 02:18:38;;;;;;;69.13;21.42;;;;;;;15.61;100.00;95385.22;4946416;28;20038;-96
2022/10/27 02:21:06;;;;;;;49.83;18.45;;;;;;;15.72;100.00;95393.88;4945949;28;20030;-96
2022/10/27 02:23:31;;;;;;;53.45;17.80;;;;;;;15.79;100.00;95390.94;4946414;28;20026;-96
2022/10/27 02:26:18;;;;;;;62.20;18.60;;;;;;;15.90;100.00;95391.66;4946090;28;20031;-96
2022/10/27 02:28:53;;;;;;;54.30;20.10;;;;;;;15.90;100.00;95395.09;4946177;28;20039;-96
2022/10/27 02:31:21;;;;;;;53.15;20.50;;;;;;;15.90;100.00;95402.22;4946168;28;20030;-96
2022/10/27 02:33:46;;;;;;;81.57;21.52;;;;;;;15.69;100.00;95404.97;4946466;28;20427;-96
2022/10/27 02:36:12;;;;;;;74.30;22.65;;;;;;;15.63;100.00;95401.56;4946367;28;20133;-93
2022/10/27 02:38:37;;;;;;;49.40;19.45;;;;;;;15.88;100.00;95397.19;4946045;28;20026;-95
2022/10/27 02:41:03;;;;;;;58.30;19.38;;;;;;;15.96;100.00;95406.41;4945656;28;20031;-93
2022/10/27 02:43:31;;;;;;;52.97;17.85;;;;;;;15.93;100.00;95409.59;4945677;28;20054;-94
2022/10/27 02:45:58;;;;;;;52.42;16.30;;;;;;;15.95;100.00;95402.19;4945595;28;20031;-93
2022/10/27 02:48:24;;;;;;;54.20;18.90;;;;;;;15.95;100.00;95413.56;4945802;28;20041;-94
2022/10/27 02:50:56;;;;;;;53.15;18.70;;;;;;;16.00;100.00;95409.28;4945611;28;20495;-93
2022/10/27 02:53:22;;;;;;;63.10;18.60;;;;;;;16.04;100.00;95410.31;4946623;28;20085;-94
2022/10/27 02:55:50;;;;;;;47.63;18.08;;;;;;;16.04;100.00;95415.59;4945480;28;20031;-95
2022/10/27 02:58:16;;;;;;;51.33;16.42;;;;;;;16.13;100.00;95413.97;4945722;28;20031;-95
2022/10/27 03:00:41;;;;;;;51.45;17.00;;;;;;;15.55;100.00;95405.56;4945500;28;20046;-94
2022/10/27 03:03:07;;;;;;;57.65;17.90;;;;;;;15.51;100.00;95411.69;4945911;28;20031;-92
2022/10/27 03:05:33;;;;;;;50.40;17.77;;;;;;;15.63;100.00;95416.63;4945443;28;20440;-94
2022/10/27 03:07:58;;;;;;;53.38;17.73;;;;;;;15.77;100.00;95420.25;4945706;28;20041;-94
2022/10/27 03:10:26;;;;;;;57.90;20.90;;;;;;;15.50;100.00;95423.31;4948522;28;20044;-93
2022/10/27 03:12:52;;;;;;;55.70;21.10;;;;;;;15.40;100.00;95429.44;4949530;28;20163;-93
2022/10/27 03:15:19;;;;;;;72.88;22.80;;;;;;;15.09;100.00;95430.34;4949856;28;20444;-93
2022/10/27 03:17:45;;;;;;;82.60;26.65;;;;;;;15.07;100.00;95426.41;4949451;28;20035;-94
2022/10/27 03:20:14;;;;;;;85.90;26.80;;;;;;;15.35;100.00;95429.47;4949302;28;20041;-93
2022/10/27 03:22:40;;;;;;;79.38;26.10;;;;;;;15.46;100.00;95431.00;4949339;28;20102;-93
2022/10/27 03:25:07;;;;;;;69.32;23.55;;;;;;;15.43;100.00;95436.03;4949326;28;20035;-94
2022/10/27 03:27:32;;;;;;;64.95;22.35;;;;;;;15.47;100.00;95429.94;4949343;28;20305;-93
2022/10/27 03:29:58;;;;;;;65.38;24.85;;;;;;;15.50;100.00;95432.03;4948987;28;20037;-96
2022/10/27 03:32:23;;;;;;;81.63;22.95;;;;;;;15.63;100.00;95429.84;4949038;28;20051;-93
2022/10/27 03:34:48;;;;;;;58.75;20.48;;;;;;;15.69;100.00;95432.19;4948840;28;20027;-94
2022/10/27 03:37:14;;;;;;;52.50;19.15;;;;;;;15.75;100.00;95440.06;4948941;28;20045;-92
2022/10/27 03:39:39;;;;;;;77.97;23.75;;;;;;;15.48;100.00;95443.91;4949478;28;20430;-92
2022/10/27 03:42:05;;;;;;;74.30;23.58;;;;;;;15.36;100.00;95433.69;4948825;28;20035;-93
2022/10/27 03:44:30;;;;;;;59.70;23.02;;;;;;;15.55;100.00;95434.63;4949026;28;20442;-93
2022/10/27 03:46:56;;;;;;;60.60;20.92;;;;;;;15.57;100.00;95442.28;4948618;28;20031;-94
2022/10/27 03:52:45;;;;;;;56.13;20.33;;;;;;;15.65;100.00;95439.09;4981726;28;20094;-94
2022/10/27 03:55:11;;;;;;;63.50;20.02;;;;;;;15.53;100.00;95438.63;4981586;28;20039;-93
2022/10/27 03:57:36;;;;;;;65.93;22.20;;;;;;;15.25;100.00;95439.00;4981539;28;20023;-94
2022/10/27 04:00:01;;;;;;;64.72;24.40;;;;;;;15.15;100.00;95439.06;4981405;28;20027;-94
2022/10/27 04:02:27;;;;;;;61.10;20.70;;;;;;;15.30;100.00;95448.75;4981364;28;20126;-94
2022/10/27 04:04:55;;;;;;;49.85;19.65;;;;;;;15.51;100.00;95446.81;4981465;28;20022;-94
2022/10/27 04:07:20;;;;;;;59.45;19.38;;;;;;;15.52;100.00;95444.97;4981365;28;20026;-94
2022/10/27 04:09:46;;;;;;;46.33;17.50;;;;;;;15.58;100.00;95451.78;4982082;28;20122;-95
2022/10/27 04:12:11;;;;;;;52.33;17.33;;;;;;;15.60;100.00;95452.31;4987011;28;20030;-95
2022/10/27 04:14:40;;;;;;;64.13;20.60;;;;;;;15.46;100.00;95448.69;4993485;28;20019;-95
2022/10/27 04:17:05;;;;;;;82.63;23.25;;;;;;;15.08;100.00;95452.53;4986963;28;20027;-94
2022/10/27 04:19:31;;;;;;;76.93;24.98;;;;;;;15.24;100.00;95455.13;4987696;28;20033;-95
2022/10/27 04:21:59;;;;;;;82.50;25.90;;;;;;;15.25;100.00;95454.06;4984372;28;20027;-94
2022/10/27 04:24:24;;;;;;;76.75;26.20;;;;;;;14.97;100.00;95453.63;4984216;28;20347;-96
2022/10/27 04:26:59;;;;;;;68.43;25.23;;;;;;;15.26;100.00;95453.78;4986276;28;20027;-96
2022/10/27 04:29:32;;;;;;;76.78;25.00;;;;;;;15.30;100.00;95456.66;4983799;28;20038;-96
2022/10/27 04:32:05;;;;;;;77.15;24.25;;;;;;;14.89;100.00;95451.50;4966827;28;20062;-95
2022/10/27 04:34:31;;;;;;;73.37;24.63;;;;;;;15.24;100.00;95458.53;4967363;28;20039;-96
2022/10/27 04:37:06;;;;;;;54.90;22.48;;;;;;;15.30;100.00;95456.66;4966162;28;20312;-94
2022/10/27 04:39:41;;;;;;;59.63;21.85;;;;;;;15.39;100.00;95464.81;4988230;28;20049;-96
2022/10/27 04:42:08;;;;;;;61.15;21.80;;;;;;;15.30;100.00;95466.44;4973300;28;20038;-95
2022/10/27 04:44:46;;;;;;;63.00;20.15;;;;;;;15.47;100.00;95464.25;4960543;28;20090;-95
2022/10/27 04:47:27;;;;;;;;;;;;;;;;;;;;;
2022/10/27 04:49:56;;;;;;;74.40;21.50;;;;;;;15.07;100.00;95474.72;4981966;28;20043;-95
2022/10/27 04:52:35;;;;;;;;;;;;;;;;;;;;;
2022/10/27 04:55:01;;;;;;;74.85;23.35;;;;;;;14.93;100.00;95455.22;4974982;28;20105;-94
2022/10/27 04:57:50;;;;;;;;;;;;;;;;;;;;;
2022/10/27 05:08:12;;;;;;;;;;;;;;;;;;;;;
2022/10/27 05:10:49;;;;;;;86.55;25.38;;;;;;;15.03;100.00;95465.72;5022132;28;20037;-88
2022/10/27 05:13:25;;;;;;;;;;;;;;;;;;;;;
2022/10/27 05:16:10;;;;;;;;;;;;;;;;;;;;;
2022/10/27 05:18:43;;;;;;;108.13;24.88;;;;;;;14.93;100.00;95468.41;5038290;28;20350;-87
2022/10/27 05:21:42;;;;;;;;;;;;;;;;;;;;;
2022/10/27 05:24:21;;;;;;;;;;;;;;;;;;;;;
2022/10/27 05:26:59;;;;;;;;;;;;;;;;;;;;;
2022/10/27 05:29:27;;;;;;;72.88;23.00;;;;;;;15.24;100.00;95484.16;5021898;28;20021;-86
2022/10/27 05:32:13;;;;;;;62.78;21.40;;;;;;;15.32;100.00;95483.59;5020175;28;20029;-87
2022/10/27 05:34:40;;;;;;;69.07;22.48;;;;;;;15.30;100.00;95485.72;5019454;28;20045;-87
2022/10/27 05:37:14;;;;;;;73.28;24.40;;;;;;;15.37;100.00;95480.94;5020611;28;20038;-86
2022/10/27 05:39:44;;;;;;;64.22;21.83;;;;;;;15.51;100.00;95483.00;5021259;28;20029;-86
2022/10/27 05:42:15;;;;;;;70.05;22.33;;;;;;;15.48;100.00;95489.59;5003517;28;20454;-87
2022/10/27 05:44:51;;;;;;;;;;;;;;;;;;;;;
2022/10/27 05:47:20;;;;;;;67.38;23.92;;;;;;;15.30;100.00;95484.94;5021892;28;20022;-87
2022/10/27 05:49:52;;;;;;;73.82;25.67;;;;;;;15.26;100.00;95480.16;5004759;28;20484;-87
2022/10/27 05:52:20;;;;;;;72.38;23.98;;;;;;;15.24;100.00;95492.06;5004697;28;20035;-87
2022/10/27 05:54:58;;;;;;;58.42;20.30;;;;;;;15.51;100.00;95493.56;5004273;28;20021;-87
2022/10/27 05:57:37;;;;;;;65.28;20.10;;;;;;;15.51;100.00;95488.28;5004586;28;20064;-87
2022/10/27 06:00:25;;;;;;;;;;;;;;;;;;;;;
2022/10/27 06:02:59;;;;;;;57.17;17.77;;;;;;;15.26;100.00;95501.28;5021207;28;20027;-86
2022/10/27 06:05:28;;;;;;;70.50;21.40;;;;;;;15.54;100.00;95504.38;5037352;28;20025;-86
2022/10/27 06:07:59;;;;;;;45.05;16.67;;;;;;;15.87;100.00;95501.31;5003127;28;20041;-86
2022/10/27 06:10:28;;;;;;;57.17;20.05;;;;;;;15.54;100.00;95501.72;5003795;28;20083;-86
2022/10/27 06:12:59;;;;;;;65.75;20.20;;;;;;;15.57;100.00;95510.19;5003384;28;20434;-86
2022/10/27 06:15:27;;;;;;;49.95;18.58;;;;;;;15.93;100.00;95515.31;5003102;28;20072;-86
2022/10/27 06:17:53;;;;;;;41.70;17.20;;;;;;;16.16;100.00;95507.78;5003296;28;20049;-87
2022/10/27 06:20:18;;;;;;;38.92;15.38;;;;;;;16.44;100.00;95516.06;5019381;28;20033;-86
2022/10/27 06:22:47;;;;;;;54.10;17.13;;;;;;;16.73;100.00;95529.31;5019462;28;20030;-86
2022/10/27 06:25:15;;;;;;;51.97;18.85;;;;;;;16.74;100.00;95528.25;5019625;28;20057;-87
2022/10/27 06:27:40;;;;;;;58.17;18.52;;;;;;;16.86;100.00;95535.03;5019667;28;20029;-87
2022/10/27 06:30:06;;;;;;;60.92;20.30;;;;;;;16.92;100.00;95533.91;5003356;28;20075;-86
2022/10/27 06:32:36;;;;;;;51.50;19.27;;;;;;;17.18;100.00;95528.41;5019313;28;20037;-87
2022/10/27 06:35:02;;;;;;;61.72;21.88;;;;;;;17.03;100.00;95532.78;5017044;28;20036;-86
2022/10/27 06:37:28;;;;;;;49.58;18.75;;;;;;;17.28;100.00;95541.56;5036862;28;20446;-86
2022/10/27 06:39:54;;;;;;;45.58;17.58;;;;;;;17.20;100.00;95550.91;5019054;28;20033;-86
2022/10/27 06:42:21;;;;;;;60.60;20.75;;;;;;;17.45;100.00;95545.59;5002712;28;20160;-86
2022/10/27 06:44:46;;;;;;;60.17;21.05;;;;;;;17.62;100.00;95543.28;5002695;28;20030;-86
2022/10/27 06:47:12;;;;;;;54.35;22.73;;;;;;;17.81;100.00;95548.63;5036966;28;20456;-86
2022/10/27 06:49:37;;;;;;;59.88;22.63;;;;;;;17.93;100.00;95553.53;5002764;28;20061;-86
2022/10/27 06:52:03;;;;;;;56.38;16.73;;;;;;;17.55;100.00;95555.31;5018415;28;20029;-85
2022/10/27 06:54:30;;;;;;;31.17;13.35;;;;;;;17.93;100.00;95556.19;5019556;28;20061;-86
2022/10/27 06:56:55;;;;;;;42.50;16.55;;;;;;;18.08;100.00;95562.41;5036538;28;20350;-86
2022/10/27 06:59:21;;;;;;;38.45;16.10;;;;;;;18.21;100.00;95566.19;5031913;28;20033;-86
2022/10/27 07:01:48;;;;;;;44.22;16.13;;;;;;;18.14;100.00;95563.09;5020403;28;20346;-86
2022/10/27 07:04:14;;;;;;;49.67;16.48;;;;;;;17.73;100.00;95574.97;5036451;28;20026;-86
2022/10/27 07:06:42;;;;;;;50.88;16.13;;;;;;;18.01;100.00;95573.31;5036520;28;20044;-86
2022/10/27 07:09:28;;;;;;;;;;;;;;;;;;;;;
2022/10/27 07:11:55;;;;;;;29.65;12.27;;;;;;;18.20;100.00;95578.66;5020192;28;20434;-86
2022/10/27 07:14:21;;;;;;;35.97;14.43;;;;;;;17.94;100.00;95580.81;5036332;28;20342;-86
2022/10/27 07:16:46;;;;;;;37.55;14.45;;;;;;;18.19;100.00;95577.06;5018799;28;20112;-86
2022/10/27 07:19:12;;;;;;;39.83;15.32;;;;;;;18.29;100.00;95583.31;5018944;28;20041;-86
2022/10/27 07:21:37;;;;;;;35.25;12.00;;;;;;;18.30;100.00;95591.00;5018669;28;20346;-85
2022/10/27 07:24:03;;;;;;;39.35;13.80;;;;;;;18.68;100.00;95590.22;5036337;28;20386;-86
2022/10/27 07:26:28;;;;;;;37.72;13.20;;;;;;;19.00;100.00;95586.00;5036287;28;20061;-85
2022/10/27 07:28:54;;;;;;;29.65;13.15;;;;;;;19.26;100.00;95590.91;5036613;28;20033;-85
2022/10/27 07:31:19;;;;;;;32.10;13.70;;;;;;;19.35;100.00;95586.47;5018241;28;20030;-85
2022/10/27 07:33:45;;;;;;;44.47;17.17;;;;;;;19.06;100.00;95590.16;5018338;28;20040;-85
2022/10/27 07:36:10;;;;;;;37.22;15.40;;;;;;;19.01;100.00;95598.22;5009810;28;20033;-85
2022/10/27 07:38:38;;;;;;;31.08;12.13;;;;;;;18.89;100.00;95601.28;4999076;28;20037;-85
2022/10/27 07:41:04;;;;;;;41.60;14.13;;;;;;;18.91;100.00;95598.34;4983137;28;20038;-85
2022/10/27 07:43:29;;;;;;;35.25;13.88;;;;;;;19.01;100.00;95597.41;4998952;28;20022;-85
2022/10/27 07:46:17;;;;;;;45.38;15.73;;;;;;;18.97;100.00;95599.84;5010637;28;20120;-85
2022/10/27 07:48:45;;;;;;;37.00;13.50;;;;;;;19.24;100.00;95603.69;5002448;28;20060;-85
2022/10/27 07:51:13;;;;;;;47.08;17.70;;;;;;;19.53;100.00;95607.97;5017936;28;20445;-85
2022/10/27 08:00:31;;;;;;;43.97;16.77;;;;;;;20.02;100.00;95618.22;5024559;28;20033;-86
2022/10/27 08:03:04;;;;;;;36.88;14.07;;;;;;;20.53;100.00;95613.69;5003673;28;20037;-86
2022/10/27 08:05:32;;;;;;;47.20;17.65;;;;;;;21.08;100.00;95614.59;4985960;28;20124;-87
2022/10/27 08:08:03;;;;;;;40.97;12.93;;;;;;;21.37;100.00;95624.03;5019792;28;20029;-85
2022/10/27 08:10:32;;;;;;;41.15;15.60;;;;;;;21.24;100.00;95625.69;5002246;28;20418;-86
2022/10/27 08:20:02;;;;;;;42.58;13.98;;;;;;;21.32;100.00;95629.50;5024397;28;20120;-86
2022/10/27 08:27:33;;;;;;;;;;;;;;;;;;;;;
2022/10/27 08:29:58;;;;;;;55.38;15.80;;;;;;;;;;5042503;28;20456;-85
2022/10/27 08:43:10;;;;;;;;;;;;;;;;;;;;;
2022/10/27 08:45:57;;;;;;;46.70;18.20;;;;;;;21.10;100.00;95632.97;5040973;28;20024;-86
2022/10/27 08:48:47;;;;;;;;;;;;;;;;;;;;;
2022/10/27 08:51:34;;;;;;;;;;;;;;;;;;;;;
2022/10/27 08:54:10;;;;;;;;;;;;;;;;;;;;;
2022/10/27 08:57:04;;;;;;;36.05;13.45;;;;;;;21.99;100.00;95632.31;5012078;28;20033;-86
2022/10/27 08:59:34;;;;;;;40.55;13.70;;;;;;;21.97;100.00;95629.94;5007546;28;20033;-86
2022/10/27 09:02:48;;;;;;;;;;;;;;;;;;;;;
2022/10/27 09:05:36;;;;;;;49.28;17.35;;;;;;;21.28;100.00;95634.63;5008384;28;20037;-86
2022/10/27 09:08:24;;;;;;;38.25;14.57;;;;;;;21.51;100.00;95637.25;5020738;28;20025;-86
2022/10/27 09:11:07;;;;;;;44.15;15.30;;;;;;;21.55;100.00;95634.78;5038012;28;20029;-86
2022/10/27 09:13:32;;;;;;;47.45;16.88;;;;;;;21.13;100.00;95637.69;5020658;28;20127;-86
2022/10/27 09:16:03;;;;;;;37.20;16.30;;;;;;;21.14;100.00;95642.69;5038160;28;20063;-86
2022/10/27 09:18:45;;;;;;;44.75;16.63;;;;;;;20.67;100.00;95634.16;5004322;28;20036;-86
2022/10/27 09:21:19;;;;;;;48.15;17.17;;;;;;;20.81;100.00;95640.28;5004679;28;20029;-86
2022/10/27 09:23:52;;;;;;;49.60;17.05;;;;;;;20.71;100.00;95646.59;5004692;28;20503;-86
2022/10/27 09:26:21;;;;;;;43.50;17.25;;;;;;;21.07;100.00;95645.00;5004260;28;20088;-86
2022/10/27 09:28:51;;;;;;;46.85;17.98;;;;;;;20.84;100.00;95646.88;5020670;28;20030;-86
2022/10/27 09:31:21;;;;;;;51.03;19.02;;;;;;;20.16;100.00;95648.28;5004273;28;20025;-86
2022/10/27 09:34:38;;;;;;;43.90;16.42;;;;;;;21.27;100.00;95641.06;5015718;28;20029;-85
2022/10/27 09:37:14;;;;;;;39.17;14.38;;;;;;;21.65;100.00;95641.72;4941771;29;20530;-85
2022/10/27 09:39:45;;;;;;;51.00;15.18;;;;;;;21.11;100.00;95642.53;4957930;29;20070;-86
2022/10/27 09:42:11;;;;;;;42.97;15.77;;;;;;;21.51;100.00;95650.59;4964704;28;20038;-84
2022/10/27 09:44:36;;;;;;;45.08;17.50;;;;;;;21.06;100.00;95646.09;5001087;28;20308;-85
2022/10/27 09:47:02;;;;;;;52.38;18.42;;;;;;;20.75;100.00;95647.56;4984823;28;20120;-85
2022/10/27 09:49:34;;;;;;;52.40;15.93;;;;;;;21.82;100.00;95646.38;5017838;28;20469;-84
2022/10/27 09:52:03;;;;;;;49.03;16.48;;;;;;;21.61;100.00;95646.88;4984576;28;20029;-84
2022/10/27 09:54:37;;;;;;;37.90;15.15;;;;;;;22.53;100.00;95650.03;4983904;28;20034;-85
2022/10/27 09:57:08;;;;;;;55.78;18.25;;;;;;;21.53;100.00;95645.75;5000543;28;20026;-84
2022/10/27 09:59:35;;;;;;;51.08;18.17;;;;;;;21.29;100.00;95641.53;5000205;28;20052;-85
2022/10/27 10:02:04;;;;;;;50.60;18.45;;;;;;;21.43;100.00;95646.78;5000211;28;20022;-87
2022/10/27 10:04:41;;;;;;;46.22;17.55;;;;;;;21.56;100.00;95650.47;4984654;28;20401;-86
2022/10/27 10:07:26;;;;;;;49.40;17.45;;;;;;;22.51;100.00;95655.69;4984220;28;20033;-86
2022/10/27 10:10:08;;;;;;;38.97;16.08;;;;;;;22.73;100.00;95651.28;5032985;28;20392;-86
2022/10/27 10:12:35;;;;;;;39.58;16.13;;;;;;;22.02;100.00;95651.16;5020503;28;20029;-86
2022/10/27 10:15:30;;;;;;;48.35;16.13;;;;;;;22.88;100.00;95655.38;5003420;28;20029;-87
2022/10/27 10:18:07;;;;;;;;;;;;;;;;;;;;;
2022/10/27 10:20:39;;;;;;;36.92;13.55;;;;;;;23.49;100.00;95661.78;5020398;28;20024;-86
2022/10/27 10:23:20;;;;;;;39.05;13.93;;;;;;;23.54;100.00;95659.72;5019768;28;20087;-86
2022/10/27 10:25:48;;;;;;;47.65;13.68;;;;;;;22.93;100.00;95660.56;5019352;28;20025;-86
2022/10/27 10:28:33;;;;;;;43.22;14.43;;;;;;;22.76;100.00;95660.56;5003704;28;20029;-85
2022/10/27 10:31:03;;;;;;;41.95;14.40;;;;;;;23.37;100.00;95659.75;5036850;28;20071;-86
2022/10/27 10:33:33;;;;;;;49.95;14.68;;;;;;;22.58;100.00;95660.56;5002865;28;20505;-86
2022/10/27 10:36:05;;;;;;;41.22;13.00;;;;;;;23.77;100.00;95654.13;5036414;28;20458;-86
2022/10/27 10:38:38;;;;;;;37.65;12.82;;;;;;;23.90;96.36;95654.25;5002757;28;20025;-86
2022/10/27 10:41:19;;;;;;;32.95;13.00;;;;;;;24.47;91.59;95653.03;5019847;28;20497;-86
2022/10/27 10:43:44;;;;;;;43.30;14.27;;;;;;;23.98;94.21;95653.44;4984057;28;20505;-86
2022/10/27 10:46:23;;;;;;;32.05;11.95;;;;;;;23.84;92.30;95646.41;4999540;28;20065;-87
2022/10/27 10:48:52;;;;;;;31.33;11.88;;;;;;;24.17;92.55;95654.94;5015941;28;20032;-86
2022/10/27 10:51:34;;;;;;;33.25;12.27;;;;;;;24.17;91.90;95649.59;4999345;28;20513;-86
2022/10/27 10:54:16;;;;;;;36.17;11.88;;;;;;;23.94;94.26;95645.25;5016796;28;20431;-86
2022/10/27 10:56:42;;;;;;;37.20;12.15;;;;;;;24.08;93.60;95642.38;5034935;28;20448;-86
2022/10/27 10:59:15;;;;;;;31.80;13.07;;;;;;;24.20;92.67;95636.34;5056472;28;20031;-86
2022/10/27 11:01:44;;;;;;;42.15;13.68;;;;;;;23.81;90.58;95639.00;5038480;28;20028;-86
2022/10/27 11:04:20;;;;;;;38.92;12.98;;;;;;;22.99;97.63;95637.16;5038693;28;20070;-86
2022/10/27 11:07:11;;;;;;;36.05;13.95;;;;;;;22.93;100.00;95638.41;5039717;28;20064;-86
2022/10/27 11:10:05;;;;;;;36.03;12.02;;;;;;;23.29;98.99;95638.09;5022660;28;20021;-86
2022/10/27 11:12:59;;;;;;;38.53;12.25;;;;;;;23.75;98.81;95632.28;5013960;28;20049;-86
2022/10/27 11:16:00;;;;;;;44.45;12.18;;;;;;;24.49;88.77;95628.59;5038839;28;20025;-86
2022/10/27 11:18:29;;;;;;;35.53;12.13;;;;;;;24.74;89.51;95629.50;5023728;28;20055;-94
2022/10/27 11:21:39;;;;;;;;;;;;;;;;;;;;;
2022/10/27 11:24:34;;;;;;;36.13;10.82;;;;;;;25.54;79.60;95611.63;5040558;28;20021;-94
2022/10/27 11:27:03;;;;;;;39.08;10.80;;;;;;;24.33;88.42;95621.13;5037990;28;20095;-93
2022/10/27 11:29:50;;;;;;;39.42;11.45;;;;;;;23.84;92.14;95619.66;5022679;28;20032;-93
2022/10/27 11:32:17;;;;;;;31.00;11.32;;;;;;;23.75;93.24;95624.25;5042974;28;20027;-93
2022/10/27 11:35:12;;;;;;;32.05;10.10;;;;;;;24.42;82.56;95613.84;5026727;28;20036;-93
2022/10/27 11:38:15;;;;;;;45.20;10.88;;;;;;;23.84;93.64;95600.91;5043414;28;20047;-93
2022/10/27 11:41:04;;;;;;;36.45;11.52;;;;;;;24.25;85.62;95603.25;5043063;28;20046;-93
2022/10/27 11:43:45;;;;;;;32.70;12.65;;;;;;;24.92;81.75;95598.00;5043739;28;20509;-94
2022/10/27 11:46:27;;;;;;;36.70;10.90;;;;;;;25.55;79.13;95597.06;5026636;28;20063;-93
2022/10/27 11:48:57;;;;;;;35.15;10.88;;;;;;;25.15;80.30;95600.31;5026849;28;20078;-93
2022/10/27 11:51:31;;;;;;;40.30;12.05;;;;;;;25.26;79.62;95596.13;5026595;28;20433;-93
2022/10/27 11:54:02;;;;;;;37.05;11.35;;;;;;;25.48;76.39;95593.34;5042952;28;20327;-93
2022/10/27 11:56:48;;;;;;;32.45;10.85;;;;;;;24.82;79.96;95590.41;5026911;28;20060;-94
2022/10/27 11:59:43;;;;;;;32.85;9.48;;;;;;;24.85;80.79;95597.78;5042660;28;20028;-92
2022/10/27 12:02:56;;;;;;;31.00;10.48;;;;;;;25.57;77.26;95594.03;5043022;28;20032;-93
2022/10/27 12:05:26;;;;;;;35.50;9.67;;;;;;;26.00;74.06;95601.88;5035770;28;20091;-93
2022/10/27 12:08:20;;;;;;;34.58;11.77;;;;;;;25.33;75.31;95606.28;5042397;28;20051;-94
2022/10/27 12:10:57;;;;;;;40.22;10.27;;;;;;;25.51;76.75;95588.13;5060054;28;20452;-92
2022/10/27 12:13:33;;;;;;;36.72;11.32;;;;;;;25.03;81.31;95597.59;5042575;28;20024;-93
2022/10/27 12:16:02;;;;;;;37.78;11.93;;;;;;;24.63;86.48;95580.88;5059919;28;20166;-94
2022/10/27 12:18:47;;;;;;;43.20;10.95;;;;;;;25.06;78.74;95580.84;5042191;28;20036;-93
2022/10/27 12:21:29;;;;;;;38.47;12.75;;;;;;;26.27;73.95;95583.53;5059739;28;20028;-94
2022/10/27 12:24:08;;;;;;;33.95;11.25;;;;;;;26.54;71.95;95582.03;5042444;28;20028;-94
2022/10/27 12:26:46;;;;;;;32.58;11.60;;;;;;;26.25;69.60;95579.28;5059754;28;20029;-93
2022/10/27 12:29:12;;;;;;;54.17;12.98;;;;;;;25.19;73.02;95569.03;5042665;28;20032;-86
2022/10/27 12:31:43;;;;;;;41.38;12.32;;;;;;;25.69;71.57;95572.59;5024941;28;20354;-87
2022/10/27 12:34:14;;;;;;;27.67;10.73;;;;;;;25.64;74.26;95564.78;5025147;28;20474;-86
2022/10/27 12:36:44;;;;;;;49.25;12.23;;;;;;;26.40;69.22;95577.00;5024883;28;20331;-86
2022/10/27 12:39:10;;;;;;;36.67;11.77;;;;;;;26.08;69.77;95561.47;5024939;28;20453;-86
2022/10/27 12:41:58;;;;;;;35.85;10.93;;;;;;;26.50;68.64;95560.41;5041006;28;20106;-87
2022/10/27 12:44:49;;;;;;;37.70;12.85;;;;;;;25.65;69.95;95557.50;5025093;28;20017;-87
2022/10/27 12:48:22;;;;;;;38.15;12.18;;;;;;;26.27;68.71;95562.84;5030954;28;20029;-87
2022/10/27 12:51:03;;;;;;;41.97;13.15;;;;;;;25.79;70.21;95557.16;5037000;28;20104;-87